sensor_id;sensor_type;location;lat;lon;timestamp;P1;durP1;ratioP1;P2;durP2;ratioP2
38785;SDS011;24535;45.508;12.252;2023-04-08T00:01:51;30.00;;;26.55;;
38785;SDS011;24535;45.508;12.252;2023-04-08T00:04:17;29.20;;;25.52;;
38785;SDS011;24535;45.508;12.252;2023-04-08T00:06:43;32.35;;;27.13;;
38785;SDS011;24535;45.508;12.252;2023-04-08T00:09:08;30.83;;;27.45;;
38785;SDS011;24535;45.508;12.252;2023-04-08T00:11:34;32.78;;;27.58;;
38785;SDS011;24535;45.508;12.252;2023-04-08T00:14:01;29.73;;;26.60;;
38785;SDS011;24535;45.508;12.252;2023-04-08T00:16:28;31.45;;;27.88;;
38785;SDS011;24535;45.508;12.252;2023-04-08T00:18:53;35.28;;;27.40;;
38785;SDS011;24535;45.508;12.252;2023-04-08T00:21:19;32.47;;;27.10;;
38785;SDS011;24535;45.508;12.252;2023-04-08T00:23:45;29.75;;;26.75;;
38785;SDS011;24535;45.508;12.252;2023-04-08T00:26:11;30.08;;;27.08;;
38785;SDS011;24535;45.508;12.252;2023-04-08T00:28:37;32.17;;;27.70;;
38785;SDS011;24535;45.508;12.252;2023-04-08T00:31:02;30.83;;;27.38;;
38785;SDS011;24535;45.508;12.252;2023-04-08T00:33:28;31.20;;;26.92;;
38785;SDS011;24535;45.508;12.252;2023-04-08T00:35:54;30.30;;;27.20;;
38785;SDS011;24535;45.508;12.252;2023-04-08T00:38:19;33.40;;;27.50;;
38785;SDS011;24535;45.508;12.252;2023-04-08T00:40:45;29.65;;;26.50;;
38785;SDS011;24535;45.508;12.252;2023-04-08T00:43:10;31.80;;;27.40;;
38785;SDS011;24535;45.508;12.252;2023-04-08T00:45:36;34.70;;;27.88;;
38785;SDS011;24535;45.508;12.252;2023-04-08T00:48:04;34.63;;;26.65;;
38785;SDS011;24535;45.508;12.252;2023-04-08T00:50:31;28.55;;;24.42;;
38785;SDS011;24535;45.508;12.252;2023-04-08T00:52:57;28.55;;;23.00;;
38785;SDS011;24535;45.508;12.252;2023-04-08T00:55:23;29.95;;;25.08;;
38785;SDS011;24535;45.508;12.252;2023-04-08T00:57:48;28.95;;;24.80;;
38785;SDS011;24535;45.508;12.252;2023-04-08T01:00:14;31.75;;;27.63;;
38785;SDS011;24535;45.508;12.252;2023-04-08T01:02:50;30.17;;;26.27;;
38785;SDS011;24535;45.508;12.252;2023-04-08T01:08:22;32.15;;;27.38;;
38785;SDS011;24535;45.508;12.252;2023-04-08T01:13:18;36.30;;;26.95;;
38785;SDS011;24535;45.508;12.252;2023-04-08T01:15:47;36.28;;;28.30;;
38785;SDS011;24535;45.508;12.252;2023-04-08T01:18:14;31.58;;;27.15;;
38785;SDS011;24535;45.508;12.252;2023-04-08T01:20:41;34.17;;;27.30;;
38785;SDS011;24535;45.508;12.252;2023-04-08T01:23:17;29.98;;;26.85;;
38785;SDS011;24535;45.508;12.252;2023-04-08T01:25:57;31.42;;;27.85;;
38785;SDS011;24535;45.508;12.252;2023-04-08T01:28:23;33.47;;;27.30;;
38785;SDS011;24535;45.508;12.252;2023-04-08T01:30:52;41.13;;;27.60;;
38785;SDS011;24535;45.508;12.252;2023-04-08T01:33:20;32.50;;;28.17;;
38785;SDS011;24535;45.508;12.252;2023-04-08T01:35:47;32.88;;;25.92;;
38785;SDS011;24535;45.508;12.252;2023-04-08T01:38:14;30.95;;;27.60;;
38785;SDS011;24535;45.508;12.252;2023-04-08T01:40:42;33.25;;;29.27;;
38785;SDS011;24535;45.508;12.252;2023-04-08T01:43:09;33.33;;;28.92;;
38785;SDS011;24535;45.508;12.252;2023-04-08T01:45:37;31.80;;;28.40;;
38785;SDS011;24535;45.508;12.252;2023-04-08T01:48:03;36.08;;;29.25;;
38785;SDS011;24535;45.508;12.252;2023-04-08T01:50:29;32.13;;;28.67;;
38785;SDS011;24535;45.508;12.252;2023-04-08T01:52:56;32.75;;;27.83;;
38785;SDS011;24535;45.508;12.252;2023-04-08T01:55:24;33.50;;;29.90;;
38785;SDS011;24535;45.508;12.252;2023-04-08T01:57:51;29.17;;;25.20;;
38785;SDS011;24535;45.508;12.252;2023-04-08T02:00:19;32.67;;;28.88;;
38785;SDS011;24535;45.508;12.252;2023-04-08T02:02:50;31.52;;;26.23;;
38785;SDS011;24535;45.508;12.252;2023-04-08T02:05:16;31.75;;;27.83;;
38785;SDS011;24535;45.508;12.252;2023-04-08T02:07:42;31.38;;;27.98;;
38785;SDS011;24535;45.508;12.252;2023-04-08T02:10:09;33.50;;;29.70;;
38785;SDS011;24535;45.508;12.252;2023-04-08T02:12:35;33.17;;;28.30;;
38785;SDS011;24535;45.508;12.252;2023-04-08T02:15:01;34.80;;;27.33;;
38785;SDS011;24535;45.508;12.252;2023-04-08T02:22:59;34.90;;;27.58;;
38785;SDS011;24535;45.508;12.252;2023-04-08T02:25:29;32.53;;;27.23;;
38785;SDS011;24535;45.508;12.252;2023-04-08T02:27:56;30.67;;;26.88;;
38785;SDS011;24535;45.508;12.252;2023-04-08T02:30:24;33.88;;;27.58;;
38785;SDS011;24535;45.508;12.252;2023-04-08T02:32:53;31.67;;;28.13;;
38785;SDS011;24535;45.508;12.252;2023-04-08T02:35:18;30.08;;;26.10;;
38785;SDS011;24535;45.508;12.252;2023-04-08T02:37:47;30.77;;;26.00;;
38785;SDS011;24535;45.508;12.252;2023-04-08T02:42:49;32.83;;;28.88;;
38785;SDS011;24535;45.508;12.252;2023-04-08T02:45:15;32.67;;;28.77;;
38785;SDS011;24535;45.508;12.252;2023-04-08T02:47:41;32.28;;;27.90;;
38785;SDS011;24535;45.508;12.252;2023-04-08T02:50:06;36.25;;;27.98;;
38785;SDS011;24535;45.508;12.252;2023-04-08T02:52:32;32.50;;;27.85;;
38785;SDS011;24535;45.508;12.252;2023-04-08T02:54:57;35.08;;;29.20;;
38785;SDS011;24535;45.508;12.252;2023-04-08T02:57:23;31.25;;;26.02;;
38785;SDS011;24535;45.508;12.252;2023-04-08T02:59:48;28.48;;;25.23;;
38785;SDS011;24535;45.508;12.252;2023-04-08T03:02:14;28.98;;;24.30;;
38785;SDS011;24535;45.508;12.252;2023-04-08T03:04:40;33.35;;;26.67;;
38785;SDS011;24535;45.508;12.252;2023-04-08T03:07:05;32.13;;;27.65;;
38785;SDS011;24535;45.508;12.252;2023-04-08T03:09:30;31.98;;;26.65;;
38785;SDS011;24535;45.508;12.252;2023-04-08T03:11:56;30.60;;;26.58;;
38785;SDS011;24535;45.508;12.252;2023-04-08T03:14:21;29.05;;;25.25;;
38785;SDS011;24535;45.508;12.252;2023-04-08T03:16:47;33.20;;;26.35;;
38785;SDS011;24535;45.508;12.252;2023-04-08T03:19:12;30.70;;;27.27;;
38785;SDS011;24535;45.508;12.252;2023-04-08T03:21:38;31.63;;;27.92;;
38785;SDS011;24535;45.508;12.252;2023-04-08T03:24:03;31.08;;;27.90;;
38785;SDS011;24535;45.508;12.252;2023-04-08T03:26:29;34.88;;;29.00;;
38785;SDS011;24535;45.508;12.252;2023-04-08T03:28:57;35.47;;;28.33;;
38785;SDS011;24535;45.508;12.252;2023-04-08T03:31:23;31.25;;;27.77;;
38785;SDS011;24535;45.508;12.252;2023-04-08T03:33:48;32.03;;;27.75;;
38785;SDS011;24535;45.508;12.252;2023-04-08T03:36:14;31.65;;;27.05;;
38785;SDS011;24535;45.508;12.252;2023-04-08T03:38:39;32.05;;;27.38;;
38785;SDS011;24535;45.508;12.252;2023-04-08T03:41:05;32.95;;;29.38;;
38785;SDS011;24535;45.508;12.252;2023-04-08T03:43:30;31.63;;;27.42;;
38785;SDS011;24535;45.508;12.252;2023-04-08T03:45:56;31.45;;;28.13;;
38785;SDS011;24535;45.508;12.252;2023-04-08T03:48:22;30.35;;;26.95;;
38785;SDS011;24535;45.508;12.252;2023-04-08T03:50:47;33.75;;;27.77;;
38785;SDS011;24535;45.508;12.252;2023-04-08T03:53:13;32.92;;;28.98;;
38785;SDS011;24535;45.508;12.252;2023-04-08T03:55:38;34.42;;;30.33;;
38785;SDS011;24535;45.508;12.252;2023-04-08T03:58:04;36.17;;;31.80;;
38785;SDS011;24535;45.508;12.252;2023-04-08T04:00:30;37.65;;;31.70;;
38785;SDS011;24535;45.508;12.252;2023-04-08T04:02:55;32.58;;;27.05;;
38785;SDS011;24535;45.508;12.252;2023-04-08T04:05:21;36.30;;;29.67;;
38785;SDS011;24535;45.508;12.252;2023-04-08T04:07:46;36.85;;;32.67;;
38785;SDS011;24535;45.508;12.252;2023-04-08T04:10:12;35.47;;;31.67;;
38785;SDS011;24535;45.508;12.252;2023-04-08T04:12:37;38.22;;;32.17;;
38785;SDS011;24535;45.508;12.252;2023-04-08T04:15:03;39.30;;;32.20;;
38785;SDS011;24535;45.508;12.252;2023-04-08T04:17:29;38.50;;;32.70;;
38785;SDS011;24535;45.508;12.252;2023-04-08T04:19:54;34.10;;;28.60;;
38785;SDS011;24535;45.508;12.252;2023-04-08T04:22:20;40.97;;;33.17;;
38785;SDS011;24535;45.508;12.252;2023-04-08T04:24:46;36.38;;;32.28;;
38785;SDS011;24535;45.508;12.252;2023-04-08T04:27:12;40.25;;;31.27;;
38785;SDS011;24535;45.508;12.252;2023-04-08T04:29:39;37.53;;;29.25;;
38785;SDS011;24535;45.508;12.252;2023-04-08T04:32:04;28.67;;;23.48;;
38785;SDS011;24535;45.508;12.252;2023-04-08T04:34:31;39.50;;;31.27;;
38785;SDS011;24535;45.508;12.252;2023-04-08T04:36:56;35.40;;;31.90;;
38785;SDS011;24535;45.508;12.252;2023-04-08T04:39:21;36.20;;;31.10;;
38785;SDS011;24535;45.508;12.252;2023-04-08T04:41:47;43.00;;;34.85;;
38785;SDS011;24535;45.508;12.252;2023-04-08T04:44:13;38.78;;;34.30;;
38785;SDS011;24535;45.508;12.252;2023-04-08T04:46:38;45.95;;;35.42;;
38785;SDS011;24535;45.508;12.252;2023-04-08T04:49:04;45.22;;;38.08;;
38785;SDS011;24535;45.508;12.252;2023-04-08T04:51:30;41.70;;;35.10;;
38785;SDS011;24535;45.508;12.252;2023-04-08T04:53:57;40.42;;;35.17;;
38785;SDS011;24535;45.508;12.252;2023-04-08T04:56:22;49.83;;;38.13;;
38785;SDS011;24535;45.508;12.252;2023-04-08T04:58:48;39.70;;;35.03;;
38785;SDS011;24535;45.508;12.252;2023-04-08T05:01:13;47.97;;;39.78;;
38785;SDS011;24535;45.508;12.252;2023-04-08T05:03:39;46.08;;;38.83;;
38785;SDS011;24535;45.508;12.252;2023-04-08T05:06:04;43.58;;;37.17;;
38785;SDS011;24535;45.508;12.252;2023-04-08T05:08:30;45.22;;;37.33;;
38785;SDS011;24535;45.508;12.252;2023-04-08T05:10:55;44.15;;;36.20;;
38785;SDS011;24535;45.508;12.252;2023-04-08T05:13:21;44.90;;;35.28;;
38785;SDS011;24535;45.508;12.252;2023-04-08T05:15:46;44.20;;;36.67;;
38785;SDS011;24535;45.508;12.252;2023-04-08T05:18:11;43.33;;;37.10;;
38785;SDS011;24535;45.508;12.252;2023-04-08T05:20:37;47.53;;;38.58;;
38785;SDS011;24535;45.508;12.252;2023-04-08T05:23:03;48.13;;;38.92;;
38785;SDS011;24535;45.508;12.252;2023-04-08T05:25:28;42.97;;;36.40;;
38785;SDS011;24535;45.508;12.252;2023-04-08T05:27:54;40.85;;;34.40;;
38785;SDS011;24535;45.508;12.252;2023-04-08T05:30:20;38.65;;;34.47;;
38785;SDS011;24535;45.508;12.252;2023-04-08T05:32:46;42.92;;;38.17;;
38785;SDS011;24535;45.508;12.252;2023-04-08T05:35:11;41.60;;;37.08;;
38785;SDS011;24535;45.508;12.252;2023-04-08T05:37:37;43.28;;;38.22;;
38785;SDS011;24535;45.508;12.252;2023-04-08T05:40:02;42.55;;;37.10;;
38785;SDS011;24535;45.508;12.252;2023-04-08T05:42:28;39.42;;;32.25;;
38785;SDS011;24535;45.508;12.252;2023-04-08T05:44:54;47.90;;;37.42;;
38785;SDS011;24535;45.508;12.252;2023-04-08T05:47:19;43.05;;;37.13;;
38785;SDS011;24535;45.508;12.252;2023-04-08T05:49:45;45.38;;;37.20;;
38785;SDS011;24535;45.508;12.252;2023-04-08T05:52:10;41.22;;;35.35;;
38785;SDS011;24535;45.508;12.252;2023-04-08T05:54:36;42.55;;;37.97;;
38785;SDS011;24535;45.508;12.252;2023-04-08T05:57:01;44.40;;;36.10;;
38785;SDS011;24535;45.508;12.252;2023-04-08T05:59:27;38.58;;;33.90;;
38785;SDS011;24535;45.508;12.252;2023-04-08T06:01:52;36.28;;;30.50;;
38785;SDS011;24535;45.508;12.252;2023-04-08T06:04:19;40.58;;;33.78;;
38785;SDS011;24535;45.508;12.252;2023-04-08T06:06:45;43.22;;;33.70;;
38785;SDS011;24535;45.508;12.252;2023-04-08T06:09:10;38.70;;;30.42;;
38785;SDS011;24535;45.508;12.252;2023-04-08T06:11:36;45.70;;;32.95;;
38785;SDS011;24535;45.508;12.252;2023-04-08T06:14:01;40.72;;;33.00;;
38785;SDS011;24535;45.508;12.252;2023-04-08T06:16:26;44.63;;;31.25;;
38785;SDS011;24535;45.508;12.252;2023-04-08T06:18:52;37.03;;;30.88;;
38785;SDS011;24535;45.508;12.252;2023-04-08T06:21:17;40.08;;;30.77;;
38785;SDS011;24535;45.508;12.252;2023-04-08T06:23:43;35.60;;;26.25;;
38785;SDS011;24535;45.508;12.252;2023-04-08T06:26:08;27.50;;;24.50;;
38785;SDS011;24535;45.508;12.252;2023-04-08T06:28:34;31.40;;;27.38;;
38785;SDS011;24535;45.508;12.252;2023-04-08T06:30:59;30.75;;;26.05;;
38785;SDS011;24535;45.508;12.252;2023-04-08T06:33:25;36.08;;;30.27;;
38785;SDS011;24535;45.508;12.252;2023-04-08T06:35:50;35.55;;;30.50;;
38785;SDS011;24535;45.508;12.252;2023-04-08T06:38:16;34.72;;;30.25;;
38785;SDS011;24535;45.508;12.252;2023-04-08T06:40:41;36.08;;;29.88;;
38785;SDS011;24535;45.508;12.252;2023-04-08T06:43:06;38.25;;;31.45;;
38785;SDS011;24535;45.508;12.252;2023-04-08T06:45:32;30.40;;;24.02;;
38785;SDS011;24535;45.508;12.252;2023-04-08T06:47:58;32.05;;;28.33;;
38785;SDS011;24535;45.508;12.252;2023-04-08T06:50:24;34.42;;;28.45;;
38785;SDS011;24535;45.508;12.252;2023-04-08T06:52:49;37.85;;;30.92;;
38785;SDS011;24535;45.508;12.252;2023-04-08T06:55:15;38.55;;;31.42;;
38785;SDS011;24535;45.508;12.252;2023-04-08T06:57:41;36.35;;;31.20;;
38785;SDS011;24535;45.508;12.252;2023-04-08T07:00:07;28.33;;;25.02;;
38785;SDS011;24535;45.508;12.252;2023-04-08T07:02:32;28.20;;;25.15;;
38785;SDS011;24535;45.508;12.252;2023-04-08T07:04:58;31.75;;;28.05;;
38785;SDS011;24535;45.508;12.252;2023-04-08T07:07:24;34.60;;;27.95;;
38785;SDS011;24535;45.508;12.252;2023-04-08T07:09:50;31.95;;;28.52;;
38785;SDS011;24535;45.508;12.252;2023-04-08T07:12:15;32.35;;;28.67;;
38785;SDS011;24535;45.508;12.252;2023-04-08T07:14:41;30.85;;;25.02;;
38785;SDS011;24535;45.508;12.252;2023-04-08T07:17:06;32.05;;;26.13;;
38785;SDS011;24535;45.508;12.252;2023-04-08T07:19:32;35.17;;;28.13;;
38785;SDS011;24535;45.508;12.252;2023-04-08T07:21:57;33.33;;;27.02;;
38785;SDS011;24535;45.508;12.252;2023-04-08T07:24:23;36.88;;;26.30;;
38785;SDS011;24535;45.508;12.252;2023-04-08T07:26:48;31.88;;;24.48;;
38785;SDS011;24535;45.508;12.252;2023-04-08T07:29:14;31.60;;;25.63;;
38785;SDS011;24535;45.508;12.252;2023-04-08T07:31:41;28.48;;;24.10;;
38785;SDS011;24535;45.508;12.252;2023-04-08T07:34:08;31.15;;;25.38;;
38785;SDS011;24535;45.508;12.252;2023-04-08T07:36:33;31.20;;;22.55;;
38785;SDS011;24535;45.508;12.252;2023-04-08T07:38:59;28.23;;;21.23;;
38785;SDS011;24535;45.508;12.252;2023-04-08T07:41:24;25.50;;;20.27;;
38785;SDS011;24535;45.508;12.252;2023-04-08T07:43:50;27.83;;;22.33;;
38785;SDS011;24535;45.508;12.252;2023-04-08T07:46:15;25.73;;;22.90;;
38785;SDS011;24535;45.508;12.252;2023-04-08T07:48:44;25.65;;;21.38;;
38785;SDS011;24535;45.508;12.252;2023-04-08T07:51:19;30.10;;;23.73;;
38785;SDS011;24535;45.508;12.252;2023-04-08T07:53:44;27.20;;;18.17;;
38785;SDS011;24535;45.508;12.252;2023-04-08T07:56:10;19.95;;;16.27;;
38785;SDS011;24535;45.508;12.252;2023-04-08T07:58:36;18.02;;;15.48;;
38785;SDS011;24535;45.508;12.252;2023-04-08T08:01:02;21.63;;;16.73;;
38785;SDS011;24535;45.508;12.252;2023-04-08T08:03:27;21.92;;;18.55;;
38785;SDS011;24535;45.508;12.252;2023-04-08T08:05:53;20.98;;;17.02;;
38785;SDS011;24535;45.508;12.252;2023-04-08T08:08:18;20.48;;;15.27;;
38785;SDS011;24535;45.508;12.252;2023-04-08T08:10:44;16.48;;;13.35;;
38785;SDS011;24535;45.508;12.252;2023-04-08T08:13:09;15.02;;;11.70;;
38785;SDS011;24535;45.508;12.252;2023-04-08T08:15:36;16.05;;;11.85;;
38785;SDS011;24535;45.508;12.252;2023-04-08T08:18:01;14.65;;;11.07;;
38785;SDS011;24535;45.508;12.252;2023-04-08T08:20:27;18.65;;;10.98;;
38785;SDS011;24535;45.508;12.252;2023-04-08T08:22:53;14.63;;;9.20;;
38785;SDS011;24535;45.508;12.252;2023-04-08T08:25:18;10.75;;;8.10;;
38785;SDS011;24535;45.508;12.252;2023-04-08T08:27:44;13.88;;;8.40;;
38785;SDS011;24535;45.508;12.252;2023-04-08T08:30:10;12.95;;;9.48;;
38785;SDS011;24535;45.508;12.252;2023-04-08T08:32:35;10.07;;;6.70;;
38785;SDS011;24535;45.508;12.252;2023-04-08T08:35:01;14.35;;;6.72;;
38785;SDS011;24535;45.508;12.252;2023-04-08T08:37:27;12.05;;;8.88;;
38785;SDS011;24535;45.508;12.252;2023-04-08T08:39:52;9.45;;;7.25;;
38785;SDS011;24535;45.508;12.252;2023-04-08T08:42:21;14.55;;;8.40;;
38785;SDS011;24535;45.508;12.252;2023-04-08T08:44:48;12.13;;;7.88;;
38785;SDS011;24535;45.508;12.252;2023-04-08T08:47:14;11.35;;;7.50;;
38785;SDS011;24535;45.508;12.252;2023-04-08T08:49:40;10.00;;;7.50;;
38785;SDS011;24535;45.508;12.252;2023-04-08T08:52:05;16.80;;;8.95;;
38785;SDS011;24535;45.508;12.252;2023-04-08T08:54:31;9.43;;;5.18;;
38785;SDS011;24535;45.508;12.252;2023-04-08T08:56:57;8.98;;;5.50;;
38785;SDS011;24535;45.508;12.252;2023-04-08T08:59:22;9.82;;;5.65;;
38785;SDS011;24535;45.508;12.252;2023-04-08T09:01:48;8.20;;;5.15;;
38785;SDS011;24535;45.508;12.252;2023-04-08T09:04:14;8.20;;;5.00;;
38785;SDS011;24535;45.508;12.252;2023-04-08T09:06:44;9.57;;;5.05;;
38785;SDS011;24535;45.508;12.252;2023-04-08T09:09:11;15.95;;;8.88;;
38785;SDS011;24535;45.508;12.252;2023-04-08T09:11:38;13.77;;;8.73;;
38785;SDS011;24535;45.508;12.252;2023-04-08T09:14:05;11.82;;;5.93;;
38785;SDS011;24535;45.508;12.252;2023-04-08T09:16:41;12.68;;;6.97;;
38785;SDS011;24535;45.508;12.252;2023-04-08T09:19:09;7.40;;;4.78;;
38785;SDS011;24535;45.508;12.252;2023-04-08T09:21:35;10.27;;;5.50;;
38785;SDS011;24535;45.508;12.252;2023-04-08T09:24:01;6.85;;;4.60;;
38785;SDS011;24535;45.508;12.252;2023-04-08T09:26:27;6.40;;;4.15;;
38785;SDS011;24535;45.508;12.252;2023-04-08T09:28:56;5.65;;;3.60;;
38785;SDS011;24535;45.508;12.252;2023-04-08T09:31:23;8.80;;;3.05;;
38785;SDS011;24535;45.508;12.252;2023-04-08T09:33:52;6.93;;;3.35;;
38785;SDS011;24535;45.508;12.252;2023-04-08T09:36:19;6.13;;;3.70;;
38785;SDS011;24535;45.508;12.252;2023-04-08T09:38:45;5.43;;;3.50;;
38785;SDS011;24535;45.508;12.252;2023-04-08T09:41:15;10.75;;;3.90;;
38785;SDS011;24535;45.508;12.252;2023-04-08T09:43:48;6.25;;;4.07;;
38785;SDS011;24535;45.508;12.252;2023-04-08T09:46:16;6.00;;;3.78;;
38785;SDS011;24535;45.508;12.252;2023-04-08T09:48:51;8.02;;;3.65;;
38785;SDS011;24535;45.508;12.252;2023-04-08T09:51:22;6.13;;;3.40;;
38785;SDS011;24535;45.508;12.252;2023-04-08T09:53:53;9.07;;;4.50;;
38785;SDS011;24535;45.508;12.252;2023-04-08T09:56:23;8.90;;;4.10;;
38785;SDS011;24535;45.508;12.252;2023-04-08T09:58:51;14.48;;;5.30;;
38785;SDS011;24535;45.508;12.252;2023-04-08T10:01:27;8.32;;;5.57;;
38785;SDS011;24535;45.508;12.252;2023-04-08T10:04:01;8.80;;;3.75;;
38785;SDS011;24535;45.508;12.252;2023-04-08T10:06:33;7.53;;;4.60;;
38785;SDS011;24535;45.508;12.252;2023-04-08T10:08:59;7.47;;;3.80;;
38785;SDS011;24535;45.508;12.252;2023-04-08T10:11:27;8.45;;;4.25;;
38785;SDS011;24535;45.508;12.252;2023-04-08T10:13:53;9.45;;;5.63;;
38785;SDS011;24535;45.508;12.252;2023-04-08T10:16:20;8.70;;;5.07;;
38785;SDS011;24535;45.508;12.252;2023-04-08T10:18:48;10.98;;;5.07;;
38785;SDS011;24535;45.508;12.252;2023-04-08T10:24:12;5.53;;;3.65;;
38785;SDS011;24535;45.508;12.252;2023-04-08T10:26:39;6.70;;;4.03;;
38785;SDS011;24535;45.508;12.252;2023-04-08T10:31:44;4.22;;;3.25;;
38785;SDS011;24535;45.508;12.252;2023-04-08T10:34:17;6.75;;;3.38;;
38785;SDS011;24535;45.508;12.252;2023-04-08T10:36:50;4.68;;;3.15;;
38785;SDS011;24535;45.508;12.252;2023-04-08T10:39:17;5.63;;;2.88;;
38785;SDS011;24535;45.508;12.252;2023-04-08T10:41:43;3.15;;;2.63;;
38785;SDS011;24535;45.508;12.252;2023-04-08T10:44:17;4.18;;;1.85;;
38785;SDS011;24535;45.508;12.252;2023-04-08T10:46:44;6.10;;;2.33;;
38785;SDS011;24535;45.508;12.252;2023-04-08T10:49:11;3.17;;;1.80;;
38785;SDS011;24535;45.508;12.252;2023-04-08T10:51:37;6.32;;;2.60;;
38785;SDS011;24535;45.508;12.252;2023-04-08T10:54:13;5.18;;;2.60;;
38785;SDS011;24535;45.508;12.252;2023-04-08T10:56:50;2.90;;;1.90;;
38785;SDS011;24535;45.508;12.252;2023-04-08T10:59:27;3.70;;;1.90;;
38785;SDS011;24535;45.508;12.252;2023-04-08T11:01:53;4.20;;;2.40;;
38785;SDS011;24535;45.508;12.252;2023-04-08T11:04:19;4.68;;;2.17;;
38785;SDS011;24535;45.508;12.252;2023-04-08T11:06:47;3.72;;;2.80;;
38785;SDS011;24535;45.508;12.252;2023-04-08T11:09:14;3.92;;;2.20;;
38785;SDS011;24535;45.508;12.252;2023-04-08T11:11:44;3.05;;;2.25;;
38785;SDS011;24535;45.508;12.252;2023-04-08T11:14:10;2.20;;;1.85;;
38785;SDS011;24535;45.508;12.252;2023-04-08T11:16:37;5.88;;;2.53;;
38785;SDS011;24535;45.508;12.252;2023-04-08T11:19:03;4.93;;;2.20;;
38785;SDS011;24535;45.508;12.252;2023-04-08T11:21:30;7.53;;;2.17;;
38785;SDS011;24535;45.508;12.252;2023-04-08T11:23:59;3.05;;;2.47;;
38785;SDS011;24535;45.508;12.252;2023-04-08T11:26:24;4.97;;;2.35;;
38785;SDS011;24535;45.508;12.252;2023-04-08T11:28:51;3.45;;;1.98;;
38785;SDS011;24535;45.508;12.252;2023-04-08T11:31:18;4.97;;;2.10;;
38785;SDS011;24535;45.508;12.252;2023-04-08T11:33:46;4.85;;;1.98;;
38785;SDS011;24535;45.508;12.252;2023-04-08T11:36:12;5.22;;;2.47;;
38785;SDS011;24535;45.508;12.252;2023-04-08T11:38:38;4.32;;;2.40;;
38785;SDS011;24535;45.508;12.252;2023-04-08T11:41:07;5.07;;;2.28;;
38785;SDS011;24535;45.508;12.252;2023-04-08T11:43:32;3.05;;;2.03;;
38785;SDS011;24535;45.508;12.252;2023-04-08T11:46:07;6.82;;;2.00;;
38785;SDS011;24535;45.508;12.252;2023-04-08T11:48:34;2.85;;;2.05;;
38785;SDS011;24535;45.508;12.252;2023-04-08T11:51:01;5.13;;;2.40;;
38785;SDS011;24535;45.508;12.252;2023-04-08T11:53:33;3.65;;;2.30;;
38785;SDS011;24535;45.508;12.252;2023-04-08T11:56:19;5.05;;;2.42;;
38785;SDS011;24535;45.508;12.252;2023-04-08T11:58:47;3.15;;;2.20;;
38785;SDS011;24535;45.508;12.252;2023-04-08T12:01:13;5.88;;;2.88;;
38785;SDS011;24535;45.508;12.252;2023-04-08T12:03:52;5.00;;;2.88;;
38785;SDS011;24535;45.508;12.252;2023-04-08T12:06:18;6.03;;;2.88;;
38785;SDS011;24535;45.508;12.252;2023-04-08T12:08:47;4.25;;;2.67;;
38785;SDS011;24535;45.508;12.252;2023-04-08T12:14:51;5.53;;;2.40;;
38785;SDS011;24535;45.508;12.252;2023-04-08T12:17:17;4.00;;;2.22;;
38785;SDS011;24535;45.508;12.252;2023-04-08T12:19:43;2.90;;;2.35;;
38785;SDS011;24535;45.508;12.252;2023-04-08T12:22:08;5.78;;;2.28;;
38785;SDS011;24535;45.508;12.252;2023-04-08T12:24:34;5.35;;;2.42;;
38785;SDS011;24535;45.508;12.252;2023-04-08T12:26:59;3.33;;;2.17;;
38785;SDS011;24535;45.508;12.252;2023-04-08T12:29:26;4.55;;;2.70;;
38785;SDS011;24535;45.508;12.252;2023-04-08T12:31:51;3.88;;;2.53;;
38785;SDS011;24535;45.508;12.252;2023-04-08T12:34:17;3.97;;;2.17;;
38785;SDS011;24535;45.508;12.252;2023-04-08T12:36:43;5.25;;;1.80;;
38785;SDS011;24535;45.508;12.252;2023-04-08T12:39:11;6.90;;;2.15;;
38785;SDS011;24535;45.508;12.252;2023-04-08T12:41:39;5.28;;;2.13;;
38785;SDS011;24535;45.508;12.252;2023-04-08T12:44:04;3.03;;;2.08;;
38785;SDS011;24535;45.508;12.252;2023-04-08T12:46:30;3.58;;;2.05;;
38785;SDS011;24535;45.508;12.252;2023-04-08T12:48:56;5.10;;;2.42;;
38785;SDS011;24535;45.508;12.252;2023-04-08T12:51:22;5.78;;;2.28;;
38785;SDS011;24535;45.508;12.252;2023-04-08T12:53:47;3.60;;;1.92;;
38785;SDS011;24535;45.508;12.252;2023-04-08T12:56:13;3.90;;;2.10;;
38785;SDS011;24535;45.508;12.252;2023-04-08T12:58:38;4.53;;;2.58;;
38785;SDS011;24535;45.508;12.252;2023-04-08T13:01:03;3.22;;;2.25;;
38785;SDS011;24535;45.508;12.252;2023-04-08T13:03:30;4.65;;;2.10;;
38785;SDS011;24535;45.508;12.252;2023-04-08T13:06:00;4.65;;;2.35;;
38785;SDS011;24535;45.508;12.252;2023-04-08T13:08:25;3.80;;;1.73;;
38785;SDS011;24535;45.508;12.252;2023-04-08T13:10:51;3.85;;;1.42;;
38785;SDS011;24535;45.508;12.252;2023-04-08T13:13:17;4.65;;;2.50;;
38785;SDS011;24535;45.508;12.252;2023-04-08T13:15:42;5.03;;;2.17;;
38785;SDS011;24535;45.508;12.252;2023-04-08T13:18:09;2.40;;;1.88;;
38785;SDS011;24535;45.508;12.252;2023-04-08T13:20:35;8.25;;;2.05;;
38785;SDS011;24535;45.508;12.252;2023-04-08T13:23:00;3.60;;;1.98;;
38785;SDS011;24535;45.508;12.252;2023-04-08T13:25:26;4.70;;;2.30;;
38785;SDS011;24535;45.508;12.252;2023-04-08T13:27:55;9.85;;;2.55;;
38785;SDS011;24535;45.508;12.252;2023-04-08T13:30:22;2.13;;;1.60;;
38785;SDS011;24535;45.508;12.252;2023-04-08T13:32:48;5.38;;;2.00;;
38785;SDS011;24535;45.508;12.252;2023-04-08T13:35:13;5.13;;;2.67;;
38785;SDS011;24535;45.508;12.252;2023-04-08T13:37:39;9.07;;;2.15;;
38785;SDS011;24535;45.508;12.252;2023-04-08T13:40:05;6.43;;;2.53;;
38785;SDS011;24535;45.508;12.252;2023-04-08T13:42:32;7.75;;;2.35;;
38785;SDS011;24535;45.508;12.252;2023-04-08T13:44:58;5.60;;;2.00;;
38785;SDS011;24535;45.508;12.252;2023-04-08T13:47:24;2.25;;;1.80;;
38785;SDS011;24535;45.508;12.252;2023-04-08T13:49:51;6.63;;;1.98;;
38785;SDS011;24535;45.508;12.252;2023-04-08T13:52:17;4.85;;;1.80;;
38785;SDS011;24535;45.508;12.252;2023-04-08T13:54:42;2.58;;;1.42;;
38785;SDS011;24535;45.508;12.252;2023-04-08T13:57:08;2.75;;;1.80;;
38785;SDS011;24535;45.508;12.252;2023-04-08T13:59:33;4.97;;;1.70;;
38785;SDS011;24535;45.508;12.252;2023-04-08T14:01:59;8.23;;;2.22;;
38785;SDS011;24535;45.508;12.252;2023-04-08T14:04:24;6.20;;;1.45;;
38785;SDS011;24535;45.508;12.252;2023-04-08T14:06:50;5.68;;;1.98;;
38785;SDS011;24535;45.508;12.252;2023-04-08T14:09:17;3.33;;;2.00;;
38785;SDS011;24535;45.508;12.252;2023-04-08T14:11:46;3.80;;;1.50;;
38785;SDS011;24535;45.508;12.252;2023-04-08T14:14:11;3.70;;;2.08;;
38785;SDS011;24535;45.508;12.252;2023-04-08T14:16:36;4.13;;;1.60;;
38785;SDS011;24535;45.508;12.252;2023-04-08T14:19:02;3.83;;;1.83;;
38785;SDS011;24535;45.508;12.252;2023-04-08T14:21:29;2.50;;;1.88;;
38785;SDS011;24535;45.508;12.252;2023-04-08T14:23:55;3.22;;;2.25;;
38785;SDS011;24535;45.508;12.252;2023-04-08T14:26:21;3.30;;;2.05;;
38785;SDS011;24535;45.508;12.252;2023-04-08T14:28:46;2.75;;;1.75;;
38785;SDS011;24535;45.508;12.252;2023-04-08T14:31:13;3.55;;;2.08;;
38785;SDS011;24535;45.508;12.252;2023-04-08T14:33:38;3.35;;;1.90;;
38785;SDS011;24535;45.508;12.252;2023-04-08T14:36:05;2.95;;;1.58;;
38785;SDS011;24535;45.508;12.252;2023-04-08T14:38:31;2.00;;;1.60;;